« Back
NWS Peachtree City, Ga » Text Product » ATL Terminal Aerodrome Forecast


Printer-friendly Version
Current Version              Previous Versions:   1  2  3  4  5  6  7  8  9  

Terminal Aerodrome Forecast

469
FTUS42 KFFC 311411 AAA
TAFATL
TAF AMD
KATL 311411Z 3114/0118 05007KT P6SM FEW010 BKN025
     FM311700 04006KT P6SM BKN025
     FM311900 02005KT P6SM SCT040
     FM010000 VRB03KT P6SM SCT045 SCT250
     FM011500 08005KT P6SM SCT030 SCT250=

USA.gov is the U.S. government's official web portal to all federal, state and local government web resources and services.